sensor_id;sensor_type;location;lat;lon;timestamp;temperature;humidity
20845;DHT22;10583;49.084;8.646;2023-11-19T00:00:13;7.90;99.90
20845;DHT22;10583;49.084;8.646;2023-11-19T00:02:42;7.90;99.90
20845;DHT22;10583;49.084;8.646;2023-11-19T00:05:09;7.90;99.90
20845;DHT22;10583;49.084;8.646;2023-11-19T00:07:37;7.90;99.90
20845;DHT22;10583;49.084;8.646;2023-11-19T00:10:08;7.90;99.90
20845;DHT22;10583;49.084;8.646;2023-11-19T00:12:37;7.90;99.90
20845;DHT22;10583;49.084;8.646;2023-11-19T00:15:04;7.80;99.90
20845;DHT22;10583;49.084;8.646;2023-11-19T00:17:31;7.80;99.90
20845;DHT22;10583;49.084;8.646;2023-11-19T00:19:59;7.80;99.90
20845;DHT22;10583;49.084;8.646;2023-11-19T00:22:26;7.70;99.90
20845;DHT22;10583;49.084;8.646;2023-11-19T00:24:53;7.70;99.90
20845;DHT22;10583;49.084;8.646;2023-11-19T00:27:20;7.80;99.90
20845;DHT22;10583;49.084;8.646;2023-11-19T00:29:47;8.00;99.90
20845;DHT22;10583;49.084;8.646;2023-11-19T00:32:14;8.50;99.90
20845;DHT22;10583;49.084;8.646;2023-11-19T00:34:43;9.00;99.90
20845;DHT22;10583;49.084;8.646;2023-11-19T00:37:11;9.20;99.90
20845;DHT22;10583;49.084;8.646;2023-11-19T00:39:37;9.40;99.90
20845;DHT22;10583;49.084;8.646;2023-11-19T00:42:04;9.60;99.90
20845;DHT22;10583;49.084;8.646;2023-11-19T00:44:31;9.70;99.90
20845;DHT22;10583;49.084;8.646;2023-11-19T00:46:58;9.70;99.90
20845;DHT22;10583;49.084;8.646;2023-11-19T00:49:26;9.80;99.90
20845;DHT22;10583;49.084;8.646;2023-11-19T00:51:53;9.80;99.90
20845;DHT22;10583;49.084;8.646;2023-11-19T00:54:21;9.90;99.90
20845;DHT22;10583;49.084;8.646;2023-11-19T00:56:51;10.00;99.90
20845;DHT22;10583;49.084;8.646;2023-11-19T00:59:18;10.00;99.90
20845;DHT22;10583;49.084;8.646;2023-11-19T01:01:46;10.00;99.90
20845;DHT22;10583;49.084;8.646;2023-11-19T01:04:18;10.10;99.90
20845;DHT22;10583;49.084;8.646;2023-11-19T01:06:47;10.20;99.90
20845;DHT22;10583;49.084;8.646;2023-11-19T01:09:16;10.20;99.90
20845;DHT22;10583;49.084;8.646;2023-11-19T01:11:47;10.20;99.90
20845;DHT22;10583;49.084;8.646;2023-11-19T01:14:15;10.20;99.90
20845;DHT22;10583;49.084;8.646;2023-11-19T01:16:43;10.30;99.90
20845;DHT22;10583;49.084;8.646;2023-11-19T01:19:10;10.30;99.90
20845;DHT22;10583;49.084;8.646;2023-11-19T01:21:37;10.30;99.90
20845;DHT22;10583;49.084;8.646;2023-11-19T01:24:04;10.30;99.90
20845;DHT22;10583;49.084;8.646;2023-11-19T01:26:35;10.40;99.90
20845;DHT22;10583;49.084;8.646;2023-11-19T01:29:03;10.40;99.90
20845;DHT22;10583;49.084;8.646;2023-11-19T01:31:30;10.40;99.90
20845;DHT22;10583;49.084;8.646;2023-11-19T01:33:57;10.40;99.90
20845;DHT22;10583;49.084;8.646;2023-11-19T01:36:24;10.40;99.90
20845;DHT22;10583;49.084;8.646;2023-11-19T01:38:51;10.40;99.90
20845;DHT22;10583;49.084;8.646;2023-11-19T01:41:18;10.50;99.90
20845;DHT22;10583;49.084;8.646;2023-11-19T01:43:44;10.50;99.90
20845;DHT22;10583;49.084;8.646;2023-11-19T01:46:14;10.50;99.90
20845;DHT22;10583;49.084;8.646;2023-11-19T01:48:44;10.50;99.90
20845;DHT22;10583;49.084;8.646;2023-11-19T01:51:12;10.50;99.90
20845;DHT22;10583;49.084;8.646;2023-11-19T01:53:43;10.60;99.90
20845;DHT22;10583;49.084;8.646;2023-11-19T01:56:13;10.60;99.90
20845;DHT22;10583;49.084;8.646;2023-11-19T01:58:42;10.60;99.90
20845;DHT22;10583;49.084;8.646;2023-11-19T02:01:11;10.60;99.90
20845;DHT22;10583;49.084;8.646;2023-11-19T02:03:39;10.60;99.90
20845;DHT22;10583;49.084;8.646;2023-11-19T02:06:07;10.60;99.90
20845;DHT22;10583;49.084;8.646;2023-11-19T02:08:35;10.60;99.90
20845;DHT22;10583;49.084;8.646;2023-11-19T02:11:03;10.60;99.90
20845;DHT22;10583;49.084;8.646;2023-11-19T02:13:31;10.60;99.90
20845;DHT22;10583;49.084;8.646;2023-11-19T02:15:57;10.60;99.90
20845;DHT22;10583;49.084;8.646;2023-11-19T02:18:27;10.60;99.90
20845;DHT22;10583;49.084;8.646;2023-11-19T02:20:55;10.60;99.90
20845;DHT22;10583;49.084;8.646;2023-11-19T02:23:23;10.70;99.90
20845;DHT22;10583;49.084;8.646;2023-11-19T02:26:12;10.70;99.90
20845;DHT22;10583;49.084;8.646;2023-11-19T02:28:42;10.70;99.90
20845;DHT22;10583;49.084;8.646;2023-11-19T02:31:09;10.70;99.90
20845;DHT22;10583;49.084;8.646;2023-11-19T02:33:37;10.70;99.90
20845;DHT22;10583;49.084;8.646;2023-11-19T02:36:04;10.70;99.90
20845;DHT22;10583;49.084;8.646;2023-11-19T02:38:32;10.70;99.90
20845;DHT22;10583;49.084;8.646;2023-11-19T02:40:59;10.80;99.90
20845;DHT22;10583;49.084;8.646;2023-11-19T02:43:27;10.80;99.90
20845;DHT22;10583;49.084;8.646;2023-11-19T02:45:58;10.80;99.90
20845;DHT22;10583;49.084;8.646;2023-11-19T02:48:25;10.80;99.90
20845;DHT22;10583;49.084;8.646;2023-11-19T02:50:51;10.80;99.90
20845;DHT22;10583;49.084;8.646;2023-11-19T02:53:19;10.80;99.90
20845;DHT22;10583;49.084;8.646;2023-11-19T02:55:47;10.80;99.90
20845;DHT22;10583;49.084;8.646;2023-11-19T02:58:15;10.80;99.90
20845;DHT22;10583;49.084;8.646;2023-11-19T03:00:49;10.80;99.90
20845;DHT22;10583;49.084;8.646;2023-11-19T03:03:24;10.80;99.90
20845;DHT22;10583;49.084;8.646;2023-11-19T03:05:56;10.80;99.90
20845;DHT22;10583;49.084;8.646;2023-11-19T03:08:23;10.80;99.90
20845;DHT22;10583;49.084;8.646;2023-11-19T03:10:50;10.90;99.90
20845;DHT22;10583;49.084;8.646;2023-11-19T03:13:17;10.90;99.90
20845;DHT22;10583;49.084;8.646;2023-11-19T03:15:44;10.90;99.90
20845;DHT22;10583;49.084;8.646;2023-11-19T03:18:11;10.90;99.90
20845;DHT22;10583;49.084;8.646;2023-11-19T03:20:39;10.90;99.90
20845;DHT22;10583;49.084;8.646;2023-11-19T03:23:06;10.90;99.90
20845;DHT22;10583;49.084;8.646;2023-11-19T03:25:33;10.90;99.90
20845;DHT22;10583;49.084;8.646;2023-11-19T03:28:02;10.90;99.90
20845;DHT22;10583;49.084;8.646;2023-11-19T03:30:30;10.90;99.90
20845;DHT22;10583;49.084;8.646;2023-11-19T03:32:58;10.90;99.90
20845;DHT22;10583;49.084;8.646;2023-11-19T03:35:25;10.90;99.90
20845;DHT22;10583;49.084;8.646;2023-11-19T03:37:55;10.90;99.90
20845;DHT22;10583;49.084;8.646;2023-11-19T03:40:22;10.90;99.90
20845;DHT22;10583;49.084;8.646;2023-11-19T03:42:50;10.90;99.90
20845;DHT22;10583;49.084;8.646;2023-11-19T03:45:17;10.90;99.90
20845;DHT22;10583;49.084;8.646;2023-11-19T03:47:44;10.90;99.90
20845;DHT22;10583;49.084;8.646;2023-11-19T03:50:11;10.90;99.90
20845;DHT22;10583;49.084;8.646;2023-11-19T03:52:41;10.90;99.90
20845;DHT22;10583;49.084;8.646;2023-11-19T03:55:10;11.00;99.90
20845;DHT22;10583;49.084;8.646;2023-11-19T03:57:39;11.00;99.90
20845;DHT22;10583;49.084;8.646;2023-11-19T04:00:07;11.00;99.90
20845;DHT22;10583;49.084;8.646;2023-11-19T04:02:35;11.00;99.90
20845;DHT22;10583;49.084;8.646;2023-11-19T04:05:03;11.00;99.90
20845;DHT22;10583;49.084;8.646;2023-11-19T04:07:30;11.10;99.90
20845;DHT22;10583;49.084;8.646;2023-11-19T04:09:58;11.10;99.90
20845;DHT22;10583;49.084;8.646;2023-11-19T04:12:27;11.10;99.90
20845;DHT22;10583;49.084;8.646;2023-11-19T04:14:54;11.10;99.90
20845;DHT22;10583;49.084;8.646;2023-11-19T04:17:21;11.10;99.90
20845;DHT22;10583;49.084;8.646;2023-11-19T04:19:49;11.10;99.90
20845;DHT22;10583;49.084;8.646;2023-11-19T04:22:16;11.10;99.90
20845;DHT22;10583;49.084;8.646;2023-11-19T04:24:43;11.10;99.90
20845;DHT22;10583;49.084;8.646;2023-11-19T04:27:11;11.20;99.90
20845;DHT22;10583;49.084;8.646;2023-11-19T04:29:39;11.20;99.90
20845;DHT22;10583;49.084;8.646;2023-11-19T04:32:06;11.20;99.90
20845;DHT22;10583;49.084;8.646;2023-11-19T04:34:34;11.20;99.90
20845;DHT22;10583;49.084;8.646;2023-11-19T04:37:03;11.20;99.90
20845;DHT22;10583;49.084;8.646;2023-11-19T04:39:30;11.20;99.90
20845;DHT22;10583;49.084;8.646;2023-11-19T04:41:57;11.30;99.90
20845;DHT22;10583;49.084;8.646;2023-11-19T04:44:25;11.30;99.90
20845;DHT22;10583;49.084;8.646;2023-11-19T04:46:53;11.30;99.90
20845;DHT22;10583;49.084;8.646;2023-11-19T04:49:20;11.30;99.90
20845;DHT22;10583;49.084;8.646;2023-11-19T04:51:47;11.30;99.90
20845;DHT22;10583;49.084;8.646;2023-11-19T04:54:14;11.30;99.90
20845;DHT22;10583;49.084;8.646;2023-11-19T04:56:45;11.40;99.90
20845;DHT22;10583;49.084;8.646;2023-11-19T04:59:12;11.40;99.90
20845;DHT22;10583;49.084;8.646;2023-11-19T05:01:39;11.40;99.90
20845;DHT22;10583;49.084;8.646;2023-11-19T05:04:08;11.40;99.90
20845;DHT22;10583;49.084;8.646;2023-11-19T05:06:35;11.40;99.90
20845;DHT22;10583;49.084;8.646;2023-11-19T05:09:03;11.40;99.90
20845;DHT22;10583;49.084;8.646;2023-11-19T05:11:33;11.50;99.90
20845;DHT22;10583;49.084;8.646;2023-11-19T05:14:00;11.50;99.90
20845;DHT22;10583;49.084;8.646;2023-11-19T05:16:26;11.50;99.90
20845;DHT22;10583;49.084;8.646;2023-11-19T05:18:53;11.60;99.90
20845;DHT22;10583;49.084;8.646;2023-11-19T05:21:22;11.60;99.90
20845;DHT22;10583;49.084;8.646;2023-11-19T05:23:49;11.60;99.90
20845;DHT22;10583;49.084;8.646;2023-11-19T05:26:19;11.60;99.90
20845;DHT22;10583;49.084;8.646;2023-11-19T05:28:46;11.60;99.90
20845;DHT22;10583;49.084;8.646;2023-11-19T05:31:14;11.60;99.90
20845;DHT22;10583;49.084;8.646;2023-11-19T05:33:40;11.60;99.90
20845;DHT22;10583;49.084;8.646;2023-11-19T05:36:08;11.50;99.90
20845;DHT22;10583;49.084;8.646;2023-11-19T05:38:36;11.60;99.90
20845;DHT22;10583;49.084;8.646;2023-11-19T05:41:04;11.70;99.90
20845;DHT22;10583;49.084;8.646;2023-11-19T05:43:31;11.70;99.90
20845;DHT22;10583;49.084;8.646;2023-11-19T05:45:58;11.70;99.90
20845;DHT22;10583;49.084;8.646;2023-11-19T05:48:27;11.70;99.90
20845;DHT22;10583;49.084;8.646;2023-11-19T05:50:54;11.80;99.90
20845;DHT22;10583;49.084;8.646;2023-11-19T05:53:21;11.80;99.90
20845;DHT22;10583;49.084;8.646;2023-11-19T05:55:49;11.80;99.90
20845;DHT22;10583;49.084;8.646;2023-11-19T05:58:23;11.80;99.90
20845;DHT22;10583;49.084;8.646;2023-11-19T06:00:51;11.80;99.90
20845;DHT22;10583;49.084;8.646;2023-11-19T06:03:18;11.80;99.90
20845;DHT22;10583;49.084;8.646;2023-11-19T06:05:45;11.80;99.90
20845;DHT22;10583;49.084;8.646;2023-11-19T06:08:12;11.90;99.90
20845;DHT22;10583;49.084;8.646;2023-11-19T06:10:40;11.90;99.90
20845;DHT22;10583;49.084;8.646;2023-11-19T06:13:08;11.90;99.90
20845;DHT22;10583;49.084;8.646;2023-11-19T06:15:37;12.00;99.90
20845;DHT22;10583;49.084;8.646;2023-11-19T06:18:04;12.10;99.90
20845;DHT22;10583;49.084;8.646;2023-11-19T06:20:32;12.10;99.90
20845;DHT22;10583;49.084;8.646;2023-11-19T06:23:00;12.10;99.90
20845;DHT22;10583;49.084;8.646;2023-11-19T06:25:27;12.10;99.90
20845;DHT22;10583;49.084;8.646;2023-11-19T06:27:54;12.10;99.90
20845;DHT22;10583;49.084;8.646;2023-11-19T06:30:23;12.10;99.90
20845;DHT22;10583;49.084;8.646;2023-11-19T06:32:51;12.10;99.90
20845;DHT22;10583;49.084;8.646;2023-11-19T06:35:18;12.20;99.90
20845;DHT22;10583;49.084;8.646;2023-11-19T06:37:45;12.20;99.90
20845;DHT22;10583;49.084;8.646;2023-11-19T06:40:12;12.20;99.90
20845;DHT22;10583;49.084;8.646;2023-11-19T06:42:41;12.20;99.90
20845;DHT22;10583;49.084;8.646;2023-11-19T06:45:08;12.30;99.90
20845;DHT22;10583;49.084;8.646;2023-11-19T06:47:37;12.30;99.90
20845;DHT22;10583;49.084;8.646;2023-11-19T06:50:05;12.30;99.90
20845;DHT22;10583;49.084;8.646;2023-11-19T06:52:32;12.30;99.90
20845;DHT22;10583;49.084;8.646;2023-11-19T06:54:59;12.30;99.90
20845;DHT22;10583;49.084;8.646;2023-11-19T06:57:26;12.40;99.90
20845;DHT22;10583;49.084;8.646;2023-11-19T06:59:55;12.30;99.90
20845;DHT22;10583;49.084;8.646;2023-11-19T07:02:21;12.30;99.90
20845;DHT22;10583;49.084;8.646;2023-11-19T07:04:50;12.30;99.90
20845;DHT22;10583;49.084;8.646;2023-11-19T07:07:17;12.30;99.90
20845;DHT22;10583;49.084;8.646;2023-11-19T07:09:45;12.30;99.90
20845;DHT22;10583;49.084;8.646;2023-11-19T07:12:13;12.30;99.90
20845;DHT22;10583;49.084;8.646;2023-11-19T07:14:40;12.40;99.90
20845;DHT22;10583;49.084;8.646;2023-11-19T07:17:07;12.40;99.90
20845;DHT22;10583;49.084;8.646;2023-11-19T07:19:35;12.40;99.90
20845;DHT22;10583;49.084;8.646;2023-11-19T07:22:05;12.40;99.90
20845;DHT22;10583;49.084;8.646;2023-11-19T07:24:32;12.40;99.90
20845;DHT22;10583;49.084;8.646;2023-11-19T07:26:59;12.40;99.90
20845;DHT22;10583;49.084;8.646;2023-11-19T07:29:29;12.30;99.90
20845;DHT22;10583;49.084;8.646;2023-11-19T07:31:55;12.30;99.90
20845;DHT22;10583;49.084;8.646;2023-11-19T07:34:22;12.20;99.90
20845;DHT22;10583;49.084;8.646;2023-11-19T07:36:49;12.20;99.90
20845;DHT22;10583;49.084;8.646;2023-11-19T07:39:18;12.20;99.90
20845;DHT22;10583;49.084;8.646;2023-11-19T07:41:46;12.20;99.90
20845;DHT22;10583;49.084;8.646;2023-11-19T07:44:13;12.20;99.90
20845;DHT22;10583;49.084;8.646;2023-11-19T07:46:40;12.20;99.90
20845;DHT22;10583;49.084;8.646;2023-11-19T07:49:07;12.20;99.90
20845;DHT22;10583;49.084;8.646;2023-11-19T07:51:35;12.20;99.90
20845;DHT22;10583;49.084;8.646;2023-11-19T07:54:02;12.30;99.90
20845;DHT22;10583;49.084;8.646;2023-11-19T07:56:32;12.30;99.90
20845;DHT22;10583;49.084;8.646;2023-11-19T07:58:59;12.30;99.90
20845;DHT22;10583;49.084;8.646;2023-11-19T08:01:26;12.40;99.90
20845;DHT22;10583;49.084;8.646;2023-11-19T08:03:53;12.50;99.90
20845;DHT22;10583;49.084;8.646;2023-11-19T08:06:20;12.50;99.90
20845;DHT22;10583;49.084;8.646;2023-11-19T08:08:47;12.50;99.90
20845;DHT22;10583;49.084;8.646;2023-11-19T08:11:14;12.60;99.90
20845;DHT22;10583;49.084;8.646;2023-11-19T08:13:42;12.60;99.90
20845;DHT22;10583;49.084;8.646;2023-11-19T08:16:09;12.70;99.90
20845;DHT22;10583;49.084;8.646;2023-11-19T08:18:36;12.70;99.90
20845;DHT22;10583;49.084;8.646;2023-11-19T08:21:03;12.70;99.90
20845;DHT22;10583;49.084;8.646;2023-11-19T08:23:30;12.70;99.90
20845;DHT22;10583;49.084;8.646;2023-11-19T08:25:56;12.70;99.90
20845;DHT22;10583;49.084;8.646;2023-11-19T08:28:23;12.70;99.90
20845;DHT22;10583;49.084;8.646;2023-11-19T08:30:51;12.70;99.90
20845;DHT22;10583;49.084;8.646;2023-11-19T08:33:18;12.70;99.90
20845;DHT22;10583;49.084;8.646;2023-11-19T08:35:47;12.70;99.90
20845;DHT22;10583;49.084;8.646;2023-11-19T08:38:14;12.80;99.90
20845;DHT22;10583;49.084;8.646;2023-11-19T08:40:41;12.80;99.90
20845;DHT22;10583;49.084;8.646;2023-11-19T08:43:08;12.80;99.90
20845;DHT22;10583;49.084;8.646;2023-11-19T08:45:34;13.00;99.90
20845;DHT22;10583;49.084;8.646;2023-11-19T08:48:03;13.10;99.90
20845;DHT22;10583;49.084;8.646;2023-11-19T08:50:29;13.20;99.90
20845;DHT22;10583;49.084;8.646;2023-11-19T08:52:56;13.30;99.90
20845;DHT22;10583;49.084;8.646;2023-11-19T08:55:23;13.40;99.90
20845;DHT22;10583;49.084;8.646;2023-11-19T08:57:51;13.50;99.90
20845;DHT22;10583;49.084;8.646;2023-11-19T09:00:18;13.70;99.90
20845;DHT22;10583;49.084;8.646;2023-11-19T09:02:46;13.80;99.90
20845;DHT22;10583;49.084;8.646;2023-11-19T09:05:14;13.70;99.90
20845;DHT22;10583;49.084;8.646;2023-11-19T09:07:41;13.60;99.90
20845;DHT22;10583;49.084;8.646;2023-11-19T09:10:08;13.50;99.90
20845;DHT22;10583;49.084;8.646;2023-11-19T09:12:37;13.60;99.90
20845;DHT22;10583;49.084;8.646;2023-11-19T09:15:04;13.60;99.90
20845;DHT22;10583;49.084;8.646;2023-11-19T09:17:31;13.90;99.90
20845;DHT22;10583;49.084;8.646;2023-11-19T09:19:58;14.00;99.90
20845;DHT22;10583;49.084;8.646;2023-11-19T09:22:26;13.90;99.90
20845;DHT22;10583;49.084;8.646;2023-11-19T09:24:52;13.90;99.90
20845;DHT22;10583;49.084;8.646;2023-11-19T09:27:19;13.90;99.90
20845;DHT22;10583;49.084;8.646;2023-11-19T09:29:46;14.00;99.90
20845;DHT22;10583;49.084;8.646;2023-11-19T09:32:15;14.20;99.90
20845;DHT22;10583;49.084;8.646;2023-11-19T09:34:41;14.50;99.90
20845;DHT22;10583;49.084;8.646;2023-11-19T09:37:08;14.70;99.90
20845;DHT22;10583;49.084;8.646;2023-11-19T09:39:36;14.80;99.90
20845;DHT22;10583;49.084;8.646;2023-11-19T09:42:03;14.80;99.90
20845;DHT22;10583;49.084;8.646;2023-11-19T09:44:30;14.70;99.90
20845;DHT22;10583;49.084;8.646;2023-11-19T09:46:58;14.50;99.90
20845;DHT22;10583;49.084;8.646;2023-11-19T09:49:26;14.20;99.90
20845;DHT22;10583;49.084;8.646;2023-11-19T09:51:54;14.10;99.90
20845;DHT22;10583;49.084;8.646;2023-11-19T09:54:20;14.10;99.90
20845;DHT22;10583;49.084;8.646;2023-11-19T09:56:48;14.00;99.90
20845;DHT22;10583;49.084;8.646;2023-11-19T09:59:16;13.80;99.90
20845;DHT22;10583;49.084;8.646;2023-11-19T10:01:43;13.70;99.90
20845;DHT22;10583;49.084;8.646;2023-11-19T10:04:15;13.80;99.90
20845;DHT22;10583;49.084;8.646;2023-11-19T10:06:42;14.20;99.90
20845;DHT22;10583;49.084;8.646;2023-11-19T10:09:09;14.50;99.90
20845;DHT22;10583;49.084;8.646;2023-11-19T10:11:36;14.70;99.90
20845;DHT22;10583;49.084;8.646;2023-11-19T10:14:04;14.90;99.90
20845;DHT22;10583;49.084;8.646;2023-11-19T10:16:31;15.00;99.90
20845;DHT22;10583;49.084;8.646;2023-11-19T10:18:58;15.30;99.90
20845;DHT22;10583;49.084;8.646;2023-11-19T10:21:24;15.40;99.90
20845;DHT22;10583;49.084;8.646;2023-11-19T10:23:55;15.50;99.90
20845;DHT22;10583;49.084;8.646;2023-11-19T10:26:23;15.60;99.90
20845;DHT22;10583;49.084;8.646;2023-11-19T10:28:50;15.80;99.90
20845;DHT22;10583;49.084;8.646;2023-11-19T10:31:19;15.80;99.90
20845;DHT22;10583;49.084;8.646;2023-11-19T10:33:50;15.50;99.90
20845;DHT22;10583;49.084;8.646;2023-11-19T10:36:17;15.40;99.90
20845;DHT22;10583;49.084;8.646;2023-11-19T10:38:52;15.60;99.90
20845;DHT22;10583;49.084;8.646;2023-11-19T10:41:27;15.90;99.90
20845;DHT22;10583;49.084;8.646;2023-11-19T10:43:53;16.20;99.90
20845;DHT22;10583;49.084;8.646;2023-11-19T10:46:21;16.30;99.90
20845;DHT22;10583;49.084;8.646;2023-11-19T10:48:48;16.20;99.90
20845;DHT22;10583;49.084;8.646;2023-11-19T10:51:19;16.10;99.90
20845;DHT22;10583;49.084;8.646;2023-11-19T10:53:49;16.30;99.90
20845;DHT22;10583;49.084;8.646;2023-11-19T10:56:19;16.30;99.90
20845;DHT22;10583;49.084;8.646;2023-11-19T10:58:48;16.40;99.90
20845;DHT22;10583;49.084;8.646;2023-11-19T11:01:19;16.50;99.90
20845;DHT22;10583;49.084;8.646;2023-11-19T11:03:47;16.20;99.90
20845;DHT22;10583;49.084;8.646;2023-11-19T11:06:18;16.20;99.90
20845;DHT22;10583;49.084;8.646;2023-11-19T11:08:46;16.20;99.90
20845;DHT22;10583;49.084;8.646;2023-11-19T11:11:15;16.10;99.90
20845;DHT22;10583;49.084;8.646;2023-11-19T11:13:43;16.40;99.90
20845;DHT22;10583;49.084;8.646;2023-11-19T11:16:10;16.10;99.90
20845;DHT22;10583;49.084;8.646;2023-11-19T11:18:37;16.00;99.90
20845;DHT22;10583;49.084;8.646;2023-11-19T11:21:09;15.80;99.90
20845;DHT22;10583;49.084;8.646;2023-11-19T11:23:53;15.50;99.90
20845;DHT22;10583;49.084;8.646;2023-11-19T11:26:43;15.20;99.90
20845;DHT22;10583;49.084;8.646;2023-11-19T11:29:20;15.10;99.90
20845;DHT22;10583;49.084;8.646;2023-11-19T11:31:52;15.40;99.90
20845;DHT22;10583;49.084;8.646;2023-11-19T11:34:48;15.60;99.90
20845;DHT22;10583;49.084;8.646;2023-11-19T11:37:24;15.70;99.90
20845;DHT22;10583;49.084;8.646;2023-11-19T11:39:52;15.60;99.90
20845;DHT22;10583;49.084;8.646;2023-11-19T11:42:37;15.20;99.90
20845;DHT22;10583;49.084;8.646;2023-11-19T11:45:05;15.00;99.90
20845;DHT22;10583;49.084;8.646;2023-11-19T11:50:54;14.80;99.90
20845;DHT22;10583;49.084;8.646;2023-11-19T11:53:23;15.40;99.90
20845;DHT22;10583;49.084;8.646;2023-11-19T11:55:57;15.70;99.90
20845;DHT22;10583;49.084;8.646;2023-11-19T11:58:35;16.00;99.90
20845;DHT22;10583;49.084;8.646;2023-11-19T12:01:04;15.70;99.90
20845;DHT22;10583;49.084;8.646;2023-11-19T12:03:37;15.60;99.90
20845;DHT22;10583;49.084;8.646;2023-11-19T12:06:05;15.50;99.90
20845;DHT22;10583;49.084;8.646;2023-11-19T12:08:34;15.70;99.90
20845;DHT22;10583;49.084;8.646;2023-11-19T12:11:01;15.80;99.90
20845;DHT22;10583;49.084;8.646;2023-11-19T12:13:53;15.60;99.90
20845;DHT22;10583;49.084;8.646;2023-11-19T12:16:21;15.80;99.90
20845;DHT22;10583;49.084;8.646;2023-11-19T12:18:47;15.80;99.90
20845;DHT22;10583;49.084;8.646;2023-11-19T12:21:28;15.90;99.90
20845;DHT22;10583;49.084;8.646;2023-11-19T12:23:58;15.90;99.90
20845;DHT22;10583;49.084;8.646;2023-11-19T12:26:37;15.70;99.90
20845;DHT22;10583;49.084;8.646;2023-11-19T12:29:03;16.00;99.90
20845;DHT22;10583;49.084;8.646;2023-11-19T12:31:32;16.30;99.90
20845;DHT22;10583;49.084;8.646;2023-11-19T12:34:05;16.40;99.90
20845;DHT22;10583;49.084;8.646;2023-11-19T12:36:31;16.40;99.90
20845;DHT22;10583;49.084;8.646;2023-11-19T12:38:59;16.40;99.90
20845;DHT22;10583;49.084;8.646;2023-11-19T12:41:26;16.50;99.90
20845;DHT22;10583;49.084;8.646;2023-11-19T12:43:54;16.60;99.90
20845;DHT22;10583;49.084;8.646;2023-11-19T12:46:21;16.60;99.90
20845;DHT22;10583;49.084;8.646;2023-11-19T12:48:48;16.40;99.90
20845;DHT22;10583;49.084;8.646;2023-11-19T12:51:15;16.30;99.90
20845;DHT22;10583;49.084;8.646;2023-11-19T12:53:49;16.00;99.90
20845;DHT22;10583;49.084;8.646;2023-11-19T12:56:17;15.70;99.90
20845;DHT22;10583;49.084;8.646;2023-11-19T12:58:44;15.60;99.90
20845;DHT22;10583;49.084;8.646;2023-11-19T13:01:15;15.50;99.90
20845;DHT22;10583;49.084;8.646;2023-11-19T13:03:42;15.50;99.90
20845;DHT22;10583;49.084;8.646;2023-11-19T13:06:10;15.40;99.90
20845;DHT22;10583;49.084;8.646;2023-11-19T13:08:38;15.50;99.90
20845;DHT22;10583;49.084;8.646;2023-11-19T13:11:05;15.50;99.90
20845;DHT22;10583;49.084;8.646;2023-11-19T13:13:53;15.50;99.90
20845;DHT22;10583;49.084;8.646;2023-11-19T13:16:20;15.40;99.90
20845;DHT22;10583;49.084;8.646;2023-11-19T13:18:47;15.40;99.90
20845;DHT22;10583;49.084;8.646;2023-11-19T13:21:14;15.40;99.90
20845;DHT22;10583;49.084;8.646;2023-11-19T13:23:40;15.40;99.90
20845;DHT22;10583;49.084;8.646;2023-11-19T13:26:08;15.50;99.90
20845;DHT22;10583;49.084;8.646;2023-11-19T13:28:36;15.50;99.90
20845;DHT22;10583;49.084;8.646;2023-11-19T13:31:03;15.50;99.90
20845;DHT22;10583;49.084;8.646;2023-11-19T13:33:29;15.50;99.90
20845;DHT22;10583;49.084;8.646;2023-11-19T13:35:56;15.40;99.90
20845;DHT22;10583;49.084;8.646;2023-11-19T13:38:23;15.30;99.90
20845;DHT22;10583;49.084;8.646;2023-11-19T13:40:50;15.20;99.90
20845;DHT22;10583;49.084;8.646;2023-11-19T13:43:17;15.20;99.90
20845;DHT22;10583;49.084;8.646;2023-11-19T13:45:45;15.20;99.90
20845;DHT22;10583;49.084;8.646;2023-11-19T13:48:12;15.20;99.90
20845;DHT22;10583;49.084;8.646;2023-11-19T13:50:39;15.20;99.90
20845;DHT22;10583;49.084;8.646;2023-11-19T13:53:05;15.30;99.90
20845;DHT22;10583;49.084;8.646;2023-11-19T13:55:32;15.30;99.90
20845;DHT22;10583;49.084;8.646;2023-11-19T13:57:59;15.40;99.90
20845;DHT22;10583;49.084;8.646;2023-11-19T14:00:26;15.50;99.90
20845;DHT22;10583;49.084;8.646;2023-11-19T14:02:54;15.70;99.90
20845;DHT22;10583;49.084;8.646;2023-11-19T14:05:21;15.60;99.90
20845;DHT22;10583;49.084;8.646;2023-11-19T14:07:48;15.60;99.90
20845;DHT22;10583;49.084;8.646;2023-11-19T14:10:17;15.60;99.90
20845;DHT22;10583;49.084;8.646;2023-11-19T14:12:44;15.60;99.90
20845;DHT22;10583;49.084;8.646;2023-11-19T14:15:11;15.60;99.90
20845;DHT22;10583;49.084;8.646;2023-11-19T14:17:39;15.60;99.90
20845;DHT22;10583;49.084;8.646;2023-11-19T14:20:07;15.50;99.90
20845;DHT22;10583;49.084;8.646;2023-11-19T14:22:38;15.40;99.90
20845;DHT22;10583;49.084;8.646;2023-11-19T14:25:05;15.30;99.90
20845;DHT22;10583;49.084;8.646;2023-11-19T14:27:35;15.10;99.90
20845;DHT22;10583;49.084;8.646;2023-11-19T14:30:03;15.00;99.90
20845;DHT22;10583;49.084;8.646;2023-11-19T14:32:30;15.00;99.90
20845;DHT22;10583;49.084;8.646;2023-11-19T14:34:57;14.90;99.90
20845;DHT22;10583;49.084;8.646;2023-11-19T14:37:25;14.80;99.90
20845;DHT22;10583;49.084;8.646;2023-11-19T14:39:52;14.80;99.90
20845;DHT22;10583;49.084;8.646;2023-11-19T14:42:18;14.70;99.90
20845;DHT22;10583;49.084;8.646;2023-11-19T14:44:45;14.60;99.90
20845;DHT22;10583;49.084;8.646;2023-11-19T14:47:12;14.60;99.90
20845;DHT22;10583;49.084;8.646;2023-11-19T14:49:38;14.50;99.90
20845;DHT22;10583;49.084;8.646;2023-11-19T14:52:05;14.50;99.90
20845;DHT22;10583;49.084;8.646;2023-11-19T14:54:33;14.50;99.90
20845;DHT22;10583;49.084;8.646;2023-11-19T14:57:00;14.50;99.90
20845;DHT22;10583;49.084;8.646;2023-11-19T14:59:26;14.50;99.90
20845;DHT22;10583;49.084;8.646;2023-11-19T15:01:53;14.50;99.90
20845;DHT22;10583;49.084;8.646;2023-11-19T15:04:20;14.50;99.90
20845;DHT22;10583;49.084;8.646;2023-11-19T15:06:46;14.40;99.90
20845;DHT22;10583;49.084;8.646;2023-11-19T15:09:13;14.40;99.90
20845;DHT22;10583;49.084;8.646;2023-11-19T15:11:44;14.40;99.90
20845;DHT22;10583;49.084;8.646;2023-11-19T15:14:11;14.50;99.90
20845;DHT22;10583;49.084;8.646;2023-11-19T15:16:40;14.50;99.90
20845;DHT22;10583;49.084;8.646;2023-11-19T15:19:07;14.50;99.90
20845;DHT22;10583;49.084;8.646;2023-11-19T15:21:34;14.50;99.90
20845;DHT22;10583;49.084;8.646;2023-11-19T15:24:00;14.50;99.90
20845;DHT22;10583;49.084;8.646;2023-11-19T15:26:30;14.40;99.90
20845;DHT22;10583;49.084;8.646;2023-11-19T15:28:58;14.30;99.90
20845;DHT22;10583;49.084;8.646;2023-11-19T15:31:24;14.30;99.90
20845;DHT22;10583;49.084;8.646;2023-11-19T15:33:51;14.20;99.90
20845;DHT22;10583;49.084;8.646;2023-11-19T15:36:18;14.20;99.90
20845;DHT22;10583;49.084;8.646;2023-11-19T15:38:45;14.20;99.90
20845;DHT22;10583;49.084;8.646;2023-11-19T15:41:12;14.20;99.90